Terminal Aerodrome Forecast
Issued by NWS

Home | Current Version | Previous Version | Text Only | Print | Product List | Glossary On
Versions: 1 2 3 4 5 6 7 8 9 10 11 12 13 14
000
FTUS44 KTSA 300520
TAFRVS
TAF
KRVS 300520Z 3006/3106 01005KT P6SM SCT050
     FM301100 VRB03KT 4SM BR SCT025
     FM301300 VRB03KT P6SM SCT050
      TEMPO 3013/3017 BKN025
     FM301800 15005KT P6SM SCT050=

USA.gov is the U.S. government's official web portal to all federal, state and local government web resources and services.